Terminal Aerodrome Forecast
Issued by NWS Mt. Holly, NJ

Home | Current Version | Previous Version | Text Only | Print | Product List | Glossary On
Versions: 1 2 3 4 5 6 7 8 9 10 11 12 13 14 15 16 17 18 19 20 21 22 23 24 25 26 27
000
FTUS41 KPHI 220700 AAA
TAFPHL
TAF AMD
KPHL 220733Z 2208/2312 03012KT 6SM -RA BKN025 OVC040
     FM220900 03012KT 6SM -RA BKN015
     FM221100 03012KT 4SM -RA BR SCT009 OVC015
     FM221600 01012G20KT 4SM RA BKN015
     FM222100 35016G25KT 6SM -RA BKN020
     FM230200 35017KT P6SM OVC025
     FM230600 32015KT P6SM -RA OVC025=

USA.gov is the U.S. government's official web portal to all federal, state and local government web resources and services.